sensor_id;sensor_type;location;lat;lon;timestamp;temperature;humidity
71523;HTU21D;59343;51.102;5.884;2023-01-10T00:00:33;7.54;81.95
71523;HTU21D;59343;51.102;5.884;2023-01-10T00:03:10;7.58;81.75
71523;HTU21D;59343;51.102;5.884;2023-01-10T00:05:38;7.60;81.62
71523;HTU21D;59343;51.102;5.884;2023-01-10T00:08:06;7.60;81.48
71523;HTU21D;59343;51.102;5.884;2023-01-10T00:10:33;7.62;81.10
71523;HTU21D;59343;51.102;5.884;2023-01-10T00:13:00;7.56;81.05
71523;HTU21D;59343;51.102;5.884;2023-01-10T00:15:46;7.49;80.96
71523;HTU21D;59343;51.102;5.884;2023-01-10T00:18:15;7.37;81.08
71523;HTU21D;59343;51.102;5.884;2023-01-10T00:20:41;7.33;81.17
71523;HTU21D;59343;51.102;5.884;2023-01-10T00:23:09;7.25;81.33
71523;HTU21D;59343;51.102;5.884;2023-01-10T00:25:35;7.22;81.39
71523;HTU21D;59343;51.102;5.884;2023-01-10T00:28:02;7.19;81.43
71523;HTU21D;59343;51.102;5.884;2023-01-10T00:30:48;7.13;81.61
71523;HTU21D;59343;51.102;5.884;2023-01-10T00:33:20;7.12;81.60
71523;HTU21D;59343;51.102;5.884;2023-01-10T00:35:47;7.10;81.54
71523;HTU21D;59343;51.102;5.884;2023-01-10T00:38:13;7.03;81.66
71523;HTU21D;59343;51.102;5.884;2023-01-10T00:40:40;6.99;81.81
71523;HTU21D;59343;51.102;5.884;2023-01-10T00:43:08;6.98;81.91
71523;HTU21D;59343;51.102;5.884;2023-01-10T00:45:53;6.98;81.89
71523;HTU21D;59343;51.102;5.884;2023-01-10T00:48:20;6.93;82.08
71523;HTU21D;59343;51.102;5.884;2023-01-10T00:50:46;6.91;82.13
71523;HTU21D;59343;51.102;5.884;2023-01-10T00:53:12;6.91;82.02
71523;HTU21D;59343;51.102;5.884;2023-01-10T00:55:38;6.88;82.20
71523;HTU21D;59343;51.102;5.884;2023-01-10T00:58:06;6.87;82.19
71523;HTU21D;59343;51.102;5.884;2023-01-10T01:00:40;6.84;82.27
71523;HTU21D;59343;51.102;5.884;2023-01-10T01:03:07;6.81;82.26
71523;HTU21D;59343;51.102;5.884;2023-01-10T01:05:39;6.76;82.30
71523;HTU21D;59343;51.102;5.884;2023-01-10T01:08:06;6.78;82.22
71523;HTU21D;59343;51.102;5.884;2023-01-10T01:10:32;6.73;82.23
71523;HTU21D;59343;51.102;5.884;2023-01-10T01:13:05;6.74;82.13
71523;HTU21D;59343;51.102;5.884;2023-01-10T01:15:32;6.72;82.13
71523;HTU21D;59343;51.102;5.884;2023-01-10T01:18:00;6.71;82.01
71523;HTU21D;59343;51.102;5.884;2023-01-10T01:20:29;6.71;82.01
71523;HTU21D;59343;51.102;5.884;2023-01-10T01:22:56;6.70;82.00
71523;HTU21D;59343;51.102;5.884;2023-01-10T01:25:22;6.67;82.01
71523;HTU21D;59343;51.102;5.884;2023-01-10T01:27:48;6.67;82.10
71523;HTU21D;59343;51.102;5.884;2023-01-10T01:30:14;6.67;82.29
71523;HTU21D;59343;51.102;5.884;2023-01-10T01:32:41;6.70;82.23
71523;HTU21D;59343;51.102;5.884;2023-01-10T01:35:09;6.72;81.94
71523;HTU21D;59343;51.102;5.884;2023-01-10T01:37:35;6.69;81.86
71523;HTU21D;59343;51.102;5.884;2023-01-10T01:40:06;6.67;81.86
71523;HTU21D;59343;51.102;5.884;2023-01-10T01:42:37;6.63;81.82
71523;HTU21D;59343;51.102;5.884;2023-01-10T01:48:05;6.58;81.93
71523;HTU21D;59343;51.102;5.884;2023-01-10T01:50:43;6.63;81.86
71523;HTU21D;59343;51.102;5.884;2023-01-10T01:53:28;6.60;81.97
71523;HTU21D;59343;51.102;5.884;2023-01-10T01:56:02;6.68;82.01
71523;HTU21D;59343;51.102;5.884;2023-01-10T01:59:00;6.72;81.81
71523;HTU21D;59343;51.102;5.884;2023-01-10T02:01:30;6.76;81.65
71523;HTU21D;59343;51.102;5.884;2023-01-10T02:06:52;6.85;81.39
71523;HTU21D;59343;51.102;5.884;2023-01-10T02:10:02;6.88;81.01
71523;HTU21D;59343;51.102;5.884;2023-01-10T02:12:30;6.95;80.59
71523;HTU21D;59343;51.102;5.884;2023-01-10T02:15:02;6.94;80.41
71523;HTU21D;59343;51.102;5.884;2023-01-10T02:17:32;6.94;80.21
71523;HTU21D;59343;51.102;5.884;2023-01-10T02:20:03;6.94;80.04
71523;HTU21D;59343;51.102;5.884;2023-01-10T02:33:48;6.78;80.19
71523;HTU21D;59343;51.102;5.884;2023-01-10T02:39:09;6.79;80.44
71523;HTU21D;59343;51.102;5.884;2023-01-10T02:42:10;6.81;80.46
71523;HTU21D;59343;51.102;5.884;2023-01-10T02:47:06;6.83;80.23
71523;HTU21D;59343;51.102;5.884;2023-01-10T02:49:48;6.80;80.16
71523;HTU21D;59343;51.102;5.884;2023-01-10T02:52:22;6.80;80.20
71523;HTU21D;59343;51.102;5.884;2023-01-10T02:54:53;6.75;80.22
71523;HTU21D;59343;51.102;5.884;2023-01-10T02:58:01;6.74;80.37
71523;HTU21D;59343;51.102;5.884;2023-01-10T03:00:51;6.74;80.61
71523;HTU21D;59343;51.102;5.884;2023-01-10T03:03:34;6.75;80.73
71523;HTU21D;59343;51.102;5.884;2023-01-10T03:06:37;6.76;80.75
71523;HTU21D;59343;51.102;5.884;2023-01-10T03:12:20;6.78;80.59
71523;HTU21D;59343;51.102;5.884;2023-01-10T03:14:50;6.76;80.40
71523;HTU21D;59343;51.102;5.884;2023-01-10T03:17:19;6.74;80.39
71523;HTU21D;59343;51.102;5.884;2023-01-10T03:19:53;6.72;80.34
71523;HTU21D;59343;51.102;5.884;2023-01-10T03:22:24;6.71;80.35
71523;HTU21D;59343;51.102;5.884;2023-01-10T03:24:55;6.71;80.33
71523;HTU21D;59343;51.102;5.884;2023-01-10T03:27:46;6.68;80.53
71523;HTU21D;59343;51.102;5.884;2023-01-10T03:32:57;6.73;80.53
71523;HTU21D;59343;51.102;5.884;2023-01-10T03:43:58;6.82;80.28
71523;HTU21D;59343;51.102;5.884;2023-01-10T03:47:21;6.84;80.07
71523;HTU21D;59343;51.102;5.884;2023-01-10T03:49:53;6.84;79.75
71523;HTU21D;59343;51.102;5.884;2023-01-10T03:52:25;6.76;79.71
71523;HTU21D;59343;51.102;5.884;2023-01-10T03:54:54;6.68;79.91
71523;HTU21D;59343;51.102;5.884;2023-01-10T03:57:24;6.63;80.06
71523;HTU21D;59343;51.102;5.884;2023-01-10T03:59:57;6.57;80.23
71523;HTU21D;59343;51.102;5.884;2023-01-10T04:02:27;6.52;80.35
71523;HTU21D;59343;51.102;5.884;2023-01-10T04:04:54;6.46;80.47
71523;HTU21D;59343;51.102;5.884;2023-01-10T04:07:23;6.44;80.61
71523;HTU21D;59343;51.102;5.884;2023-01-10T04:09:50;6.41;80.72
71523;HTU21D;59343;51.102;5.884;2023-01-10T04:12:18;6.42;80.79
71523;HTU21D;59343;51.102;5.884;2023-01-10T04:14:44;6.39;80.94
71523;HTU21D;59343;51.102;5.884;2023-01-10T04:17:13;6.39;81.03
71523;HTU21D;59343;51.102;5.884;2023-01-10T04:19:39;6.41;80.94
71523;HTU21D;59343;51.102;5.884;2023-01-10T04:22:07;6.43;80.93
71523;HTU21D;59343;51.102;5.884;2023-01-10T04:24:33;6.43;80.92
71523;HTU21D;59343;51.102;5.884;2023-01-10T04:26:59;6.45;80.86
71523;HTU21D;59343;51.102;5.884;2023-01-10T04:29:25;6.46;80.75
71523;HTU21D;59343;51.102;5.884;2023-01-10T04:31:52;6.45;80.67
71523;HTU21D;59343;51.102;5.884;2023-01-10T04:34:18;6.42;80.84
71523;HTU21D;59343;51.102;5.884;2023-01-10T04:36:45;6.42;80.94
71523;HTU21D;59343;51.102;5.884;2023-01-10T04:39:11;6.43;80.95
71523;HTU21D;59343;51.102;5.884;2023-01-10T04:41:37;6.41;81.01
71523;HTU21D;59343;51.102;5.884;2023-01-10T04:44:04;6.40;81.07
71523;HTU21D;59343;51.102;5.884;2023-01-10T04:46:30;6.38;81.12
71523;HTU21D;59343;51.102;5.884;2023-01-10T04:48:58;6.35;81.18
71523;HTU21D;59343;51.102;5.884;2023-01-10T04:51:25;6.31;81.29
71523;HTU21D;59343;51.102;5.884;2023-01-10T04:53:51;6.28;81.42
71523;HTU21D;59343;51.102;5.884;2023-01-10T04:56:19;6.28;81.40
71523;HTU21D;59343;51.102;5.884;2023-01-10T04:58:47;6.25;81.52
71523;HTU21D;59343;51.102;5.884;2023-01-10T05:01:16;6.21;81.67
71523;HTU21D;59343;51.102;5.884;2023-01-10T05:03:42;6.21;81.70
71523;HTU21D;59343;51.102;5.884;2023-01-10T05:06:08;6.20;81.84
71523;HTU21D;59343;51.102;5.884;2023-01-10T05:08:35;6.23;81.91
71523;HTU21D;59343;51.102;5.884;2023-01-10T05:11:01;6.25;82.12
71523;HTU21D;59343;51.102;5.884;2023-01-10T05:13:27;6.28;82.00
71523;HTU21D;59343;51.102;5.884;2023-01-10T05:15:54;6.29;81.95
71523;HTU21D;59343;51.102;5.884;2023-01-10T05:18:21;6.34;81.79
71523;HTU21D;59343;51.102;5.884;2023-01-10T05:20:47;6.38;81.54
71523;HTU21D;59343;51.102;5.884;2023-01-10T05:23:13;6.31;81.67
71523;HTU21D;59343;51.102;5.884;2023-01-10T05:25:39;6.31;81.75
71523;HTU21D;59343;51.102;5.884;2023-01-10T05:28:05;6.31;81.75
71523;HTU21D;59343;51.102;5.884;2023-01-10T05:30:31;6.33;81.81
71523;HTU21D;59343;51.102;5.884;2023-01-10T05:32:57;6.36;81.81
71523;HTU21D;59343;51.102;5.884;2023-01-10T05:35:23;6.38;81.82
71523;HTU21D;59343;51.102;5.884;2023-01-10T05:37:49;6.43;81.72
71523;HTU21D;59343;51.102;5.884;2023-01-10T05:40:15;6.44;81.71
71523;HTU21D;59343;51.102;5.884;2023-01-10T05:42:41;6.49;81.54
71523;HTU21D;59343;51.102;5.884;2023-01-10T05:45:08;6.51;81.49
71523;HTU21D;59343;51.102;5.884;2023-01-10T05:47:34;6.53;81.38
71523;HTU21D;59343;51.102;5.884;2023-01-10T05:50:00;6.53;81.29
71523;HTU21D;59343;51.102;5.884;2023-01-10T05:52:26;6.54;81.32
71523;HTU21D;59343;51.102;5.884;2023-01-10T05:54:52;6.61;81.14
71523;HTU21D;59343;51.102;5.884;2023-01-10T05:57:18;6.56;81.27
71523;HTU21D;59343;51.102;5.884;2023-01-10T05:59:44;6.54;81.39
71523;HTU21D;59343;51.102;5.884;2023-01-10T06:02:10;6.57;81.20
71523;HTU21D;59343;51.102;5.884;2023-01-10T06:04:36;6.57;81.24
71523;HTU21D;59343;51.102;5.884;2023-01-10T06:07:02;6.56;81.28
71523;HTU21D;59343;51.102;5.884;2023-01-10T06:09:28;6.56;81.21
71523;HTU21D;59343;51.102;5.884;2023-01-10T06:11:54;6.57;81.22
71523;HTU21D;59343;51.102;5.884;2023-01-10T06:14:20;6.57;81.17
71523;HTU21D;59343;51.102;5.884;2023-01-10T06:16:47;6.59;81.25
71523;HTU21D;59343;51.102;5.884;2023-01-10T06:19:13;6.59;81.11
71523;HTU21D;59343;51.102;5.884;2023-01-10T06:21:40;6.63;81.05
71523;HTU21D;59343;51.102;5.884;2023-01-10T06:24:06;6.59;80.98
71523;HTU21D;59343;51.102;5.884;2023-01-10T06:26:32;6.56;80.98
71523;HTU21D;59343;51.102;5.884;2023-01-10T06:28:58;6.54;80.97
71523;HTU21D;59343;51.102;5.884;2023-01-10T06:31:25;6.50;80.98
71523;HTU21D;59343;51.102;5.884;2023-01-10T06:33:52;6.43;81.23
71523;HTU21D;59343;51.102;5.884;2023-01-10T06:36:18;6.40;81.30
71523;HTU21D;59343;51.102;5.884;2023-01-10T06:38:44;6.37;81.40
71523;HTU21D;59343;51.102;5.884;2023-01-10T06:41:10;6.33;81.51
71523;HTU21D;59343;51.102;5.884;2023-01-10T06:43:45;6.33;81.58
71523;HTU21D;59343;51.102;5.884;2023-01-10T06:46:13;6.30;81.61
71523;HTU21D;59343;51.102;5.884;2023-01-10T06:48:41;6.28;81.68
71523;HTU21D;59343;51.102;5.884;2023-01-10T06:51:12;6.23;81.81
71523;HTU21D;59343;51.102;5.884;2023-01-10T06:53:38;6.22;81.86
71523;HTU21D;59343;51.102;5.884;2023-01-10T06:56:05;6.23;81.83
71523;HTU21D;59343;51.102;5.884;2023-01-10T06:58:32;6.21;81.96
71523;HTU21D;59343;51.102;5.884;2023-01-10T07:00:59;6.17;82.03
71523;HTU21D;59343;51.102;5.884;2023-01-10T07:03:25;6.17;82.01
71523;HTU21D;59343;51.102;5.884;2023-01-10T07:05:51;6.16;81.99
71523;HTU21D;59343;51.102;5.884;2023-01-10T07:08:17;6.16;81.95
71523;HTU21D;59343;51.102;5.884;2023-01-10T07:10:43;6.13;81.97
71523;HTU21D;59343;51.102;5.884;2023-01-10T07:13:09;6.10;82.03
71523;HTU21D;59343;51.102;5.884;2023-01-10T07:15:35;6.08;82.16
71523;HTU21D;59343;51.102;5.884;2023-01-10T07:18:01;6.07;82.26
71523;HTU21D;59343;51.102;5.884;2023-01-10T07:20:27;6.04;82.32
71523;HTU21D;59343;51.102;5.884;2023-01-10T07:22:58;6.05;82.33
71523;HTU21D;59343;51.102;5.884;2023-01-10T07:25:26;6.01;82.33
71523;HTU21D;59343;51.102;5.884;2023-01-10T07:27:53;6.01;82.36
71523;HTU21D;59343;51.102;5.884;2023-01-10T07:30:22;6.00;82.40
71523;HTU21D;59343;51.102;5.884;2023-01-10T07:32:55;5.99;82.40
71523;HTU21D;59343;51.102;5.884;2023-01-10T07:35:22;5.98;82.49
71523;HTU21D;59343;51.102;5.884;2023-01-10T07:37:48;5.97;82.44
71523;HTU21D;59343;51.102;5.884;2023-01-10T07:40:14;5.96;82.45
71523;HTU21D;59343;51.102;5.884;2023-01-10T07:42:40;5.95;82.53
71523;HTU21D;59343;51.102;5.884;2023-01-10T07:45:06;5.96;82.55
71523;HTU21D;59343;51.102;5.884;2023-01-10T07:47:34;5.97;82.49
71523;HTU21D;59343;51.102;5.884;2023-01-10T07:49:59;5.96;82.52
71523;HTU21D;59343;51.102;5.884;2023-01-10T07:52:25;5.94;82.49
71523;HTU21D;59343;51.102;5.884;2023-01-10T07:54:51;5.97;82.45
71523;HTU21D;59343;51.102;5.884;2023-01-10T07:57:18;5.97;82.39
71523;HTU21D;59343;51.102;5.884;2023-01-10T07:59:44;5.97;82.46
71523;HTU21D;59343;51.102;5.884;2023-01-10T08:02:10;5.96;82.48
71523;HTU21D;59343;51.102;5.884;2023-01-10T08:04:36;5.99;82.40
71523;HTU21D;59343;51.102;5.884;2023-01-10T08:07:05;5.98;82.43
71523;HTU21D;59343;51.102;5.884;2023-01-10T08:09:31;5.99;82.28
71523;HTU21D;59343;51.102;5.884;2023-01-10T08:11:57;6.00;82.29
71523;HTU21D;59343;51.102;5.884;2023-01-10T08:14:23;5.99;82.23
71523;HTU21D;59343;51.102;5.884;2023-01-10T08:16:49;6.01;82.18
71523;HTU21D;59343;51.102;5.884;2023-01-10T08:19:15;6.05;82.13
71523;HTU21D;59343;51.102;5.884;2023-01-10T08:21:42;6.02;82.07
71523;HTU21D;59343;51.102;5.884;2023-01-10T08:24:08;6.05;82.07
71523;HTU21D;59343;51.102;5.884;2023-01-10T08:26:34;6.05;82.10
71523;HTU21D;59343;51.102;5.884;2023-01-10T08:29:00;6.08;82.00
71523;HTU21D;59343;51.102;5.884;2023-01-10T08:31:26;6.09;82.05
71523;HTU21D;59343;51.102;5.884;2023-01-10T08:33:53;6.14;81.97
71523;HTU21D;59343;51.102;5.884;2023-01-10T08:36:21;6.19;81.78
71523;HTU21D;59343;51.102;5.884;2023-01-10T08:38:48;6.22;81.64
71523;HTU21D;59343;51.102;5.884;2023-01-10T08:41:15;6.26;81.55
71523;HTU21D;59343;51.102;5.884;2023-01-10T08:43:41;6.30;81.36
71523;HTU21D;59343;51.102;5.884;2023-01-10T08:46:07;6.33;81.39
71523;HTU21D;59343;51.102;5.884;2023-01-10T08:48:33;6.39;81.39
71523;HTU21D;59343;51.102;5.884;2023-01-10T08:51:07;6.43;81.12
71523;HTU21D;59343;51.102;5.884;2023-01-10T08:53:33;6.50;81.01
71523;HTU21D;59343;51.102;5.884;2023-01-10T08:55:59;6.58;80.72
71523;HTU21D;59343;51.102;5.884;2023-01-10T08:58:25;6.67;80.81
71523;HTU21D;59343;51.102;5.884;2023-01-10T09:00:51;6.88;81.04
71523;HTU21D;59343;51.102;5.884;2023-01-10T09:03:16;7.14;81.11
71523;HTU21D;59343;51.102;5.884;2023-01-10T09:05:44;7.31;80.44
71523;HTU21D;59343;51.102;5.884;2023-01-10T09:08:10;7.53;79.64
71523;HTU21D;59343;51.102;5.884;2023-01-10T09:10:35;7.77;78.85
71523;HTU21D;59343;51.102;5.884;2023-01-10T09:13:02;7.91;77.37
71523;HTU21D;59343;51.102;5.884;2023-01-10T09:15:32;8.03;76.44
71523;HTU21D;59343;51.102;5.884;2023-01-10T09:18:01;8.13;76.37
71523;HTU21D;59343;51.102;5.884;2023-01-10T09:20:30;8.19;74.67
71523;HTU21D;59343;51.102;5.884;2023-01-10T09:22:57;8.18;73.77
71523;HTU21D;59343;51.102;5.884;2023-01-10T09:25:24;8.13;74.70
71523;HTU21D;59343;51.102;5.884;2023-01-10T09:27:58;8.27;75.60
71523;HTU21D;59343;51.102;5.884;2023-01-10T09:30:26;8.47;75.44
71523;HTU21D;59343;51.102;5.884;2023-01-10T09:32:54;8.58;74.68
71523;HTU21D;59343;51.102;5.884;2023-01-10T09:35:21;8.73;74.81
71523;HTU21D;59343;51.102;5.884;2023-01-10T09:37:48;8.85;73.35
71523;HTU21D;59343;51.102;5.884;2023-01-10T09:41:06;8.92;72.87
71523;HTU21D;59343;51.102;5.884;2023-01-10T09:46:38;8.82;72.45
71523;HTU21D;59343;51.102;5.884;2023-01-10T09:52:33;8.66;72.68
71523;HTU21D;59343;51.102;5.884;2023-01-10T09:55:44;8.56;72.75
71523;HTU21D;59343;51.102;5.884;2023-01-10T09:58:09;8.44;73.29
71523;HTU21D;59343;51.102;5.884;2023-01-10T10:00:43;8.38;73.86
71523;HTU21D;59343;51.102;5.884;2023-01-10T10:06:02;8.39;74.28
71523;HTU21D;59343;51.102;5.884;2023-01-10T10:08:28;8.39;74.53
71523;HTU21D;59343;51.102;5.884;2023-01-10T10:29:56;8.71;73.57
71523;HTU21D;59343;51.102;5.884;2023-01-10T10:35:31;8.67;73.63
71523;HTU21D;59343;51.102;5.884;2023-01-10T10:38:19;8.67;73.69
71523;HTU21D;59343;51.102;5.884;2023-01-10T10:40:48;8.64;73.81
71523;HTU21D;59343;51.102;5.884;2023-01-10T10:43:23;8.65;74.06
71523;HTU21D;59343;51.102;5.884;2023-01-10T10:46:14;8.64;74.09
71523;HTU21D;59343;51.102;5.884;2023-01-10T10:48:58;8.70;74.31
71523;HTU21D;59343;51.102;5.884;2023-01-10T10:54:03;8.68;73.98
71523;HTU21D;59343;51.102;5.884;2023-01-10T10:56:31;8.72;74.09
71523;HTU21D;59343;51.102;5.884;2023-01-10T10:58:58;8.75;74.08
71523;HTU21D;59343;51.102;5.884;2023-01-10T11:01:25;8.81;74.06
71523;HTU21D;59343;51.102;5.884;2023-01-10T11:03:59;8.91;74.19
71523;HTU21D;59343;51.102;5.884;2023-01-10T11:06:30;9.00;73.93
71523;HTU21D;59343;51.102;5.884;2023-01-10T11:09:01;9.06;73.48
71523;HTU21D;59343;51.102;5.884;2023-01-10T11:11:35;9.08;73.12
71523;HTU21D;59343;51.102;5.884;2023-01-10T11:14:05;9.08;73.33
71523;HTU21D;59343;51.102;5.884;2023-01-10T11:16:38;9.10;73.34
71523;HTU21D;59343;51.102;5.884;2023-01-10T11:19:25;9.14;73.39
71523;HTU21D;59343;51.102;5.884;2023-01-10T11:21:55;9.22;73.41
71523;HTU21D;59343;51.102;5.884;2023-01-10T11:24:50;9.37;73.27
71523;HTU21D;59343;51.102;5.884;2023-01-10T11:27:21;9.47;72.87
71523;HTU21D;59343;51.102;5.884;2023-01-10T11:29:55;9.51;72.39
71523;HTU21D;59343;51.102;5.884;2023-01-10T11:32:32;9.49;72.45
71523;HTU21D;59343;51.102;5.884;2023-01-10T11:35:04;9.47;72.45
71523;HTU21D;59343;51.102;5.884;2023-01-10T11:37:34;9.46;72.18
71523;HTU21D;59343;51.102;5.884;2023-01-10T11:40:20;9.41;72.29
71523;HTU21D;59343;51.102;5.884;2023-01-10T11:42:52;9.40;72.30
71523;HTU21D;59343;51.102;5.884;2023-01-10T11:50:38;9.38;72.35
71523;HTU21D;59343;51.102;5.884;2023-01-10T11:55:58;9.42;72.31
71523;HTU21D;59343;51.102;5.884;2023-01-10T11:58:30;9.41;72.35
71523;HTU21D;59343;51.102;5.884;2023-01-10T12:00:57;9.41;72.32
71523;HTU21D;59343;51.102;5.884;2023-01-10T12:03:30;9.45;72.32
71523;HTU21D;59343;51.102;5.884;2023-01-10T12:06:12;9.45;71.95
71523;HTU21D;59343;51.102;5.884;2023-01-10T12:08:39;9.41;72.27
71523;HTU21D;59343;51.102;5.884;2023-01-10T12:13:50;9.38;71.98
71523;HTU21D;59343;51.102;5.884;2023-01-10T12:16:17;9.34;72.31
71523;HTU21D;59343;51.102;5.884;2023-01-10T12:18:45;9.33;72.31
71523;HTU21D;59343;51.102;5.884;2023-01-10T12:21:14;9.31;72.41
71523;HTU21D;59343;51.102;5.884;2023-01-10T12:23:44;9.31;72.41
71523;HTU21D;59343;51.102;5.884;2023-01-10T12:26:12;9.31;72.47
71523;HTU21D;59343;51.102;5.884;2023-01-10T12:28:49;9.32;72.49
71523;HTU21D;59343;51.102;5.884;2023-01-10T12:31:20;9.33;72.62
71523;HTU21D;59343;51.102;5.884;2023-01-10T12:33:56;9.39;72.71
71523;HTU21D;59343;51.102;5.884;2023-01-10T12:36:39;9.42;72.65
71523;HTU21D;59343;51.102;5.884;2023-01-10T12:44:52;9.50;72.37
71523;HTU21D;59343;51.102;5.884;2023-01-10T12:50:28;9.55;72.20
71523;HTU21D;59343;51.102;5.884;2023-01-10T12:53:16;9.57;71.84
71523;HTU21D;59343;51.102;5.884;2023-01-10T12:55:46;9.54;71.64
71523;HTU21D;59343;51.102;5.884;2023-01-10T12:58:21;9.56;71.54
71523;HTU21D;59343;51.102;5.884;2023-01-10T13:00:55;9.60;71.45
71523;HTU21D;59343;51.102;5.884;2023-01-10T13:03:28;9.64;71.24
71523;HTU21D;59343;51.102;5.884;2023-01-10T13:05:59;9.61;71.19
71523;HTU21D;59343;51.102;5.884;2023-01-10T13:08:29;9.63;71.19
71523;HTU21D;59343;51.102;5.884;2023-01-10T13:10:59;9.65;71.11
71523;HTU21D;59343;51.102;5.884;2023-01-10T13:13:32;9.64;70.73
71523;HTU21D;59343;51.102;5.884;2023-01-10T13:21:27;9.64;70.64
71523;HTU21D;59343;51.102;5.884;2023-01-10T13:29:23;9.62;70.55
71523;HTU21D;59343;51.102;5.884;2023-01-10T13:31:50;9.55;70.74
71523;HTU21D;59343;51.102;5.884;2023-01-10T13:34:31;9.61;70.53
71523;HTU21D;59343;51.102;5.884;2023-01-10T13:37:12;9.66;70.60
71523;HTU21D;59343;51.102;5.884;2023-01-10T13:39:44;9.66;70.43
71523;HTU21D;59343;51.102;5.884;2023-01-10T13:42:33;9.66;70.49
71523;HTU21D;59343;51.102;5.884;2023-01-10T13:57:58;9.66;70.42
71523;HTU21D;59343;51.102;5.884;2023-01-10T14:06:19;9.59;70.29
71523;HTU21D;59343;51.102;5.884;2023-01-10T14:08:57;9.59;70.28
71523;HTU21D;59343;51.102;5.884;2023-01-10T14:14:02;9.52;71.12
71523;HTU21D;59343;51.102;5.884;2023-01-10T14:16:34;9.42;71.69
71523;HTU21D;59343;51.102;5.884;2023-01-10T14:19:06;9.41;71.72
71523;HTU21D;59343;51.102;5.884;2023-01-10T14:21:41;9.36;72.16
71523;HTU21D;59343;51.102;5.884;2023-01-10T14:24:26;9.27;72.70
71523;HTU21D;59343;51.102;5.884;2023-01-10T14:26:55;9.23;73.19
71523;HTU21D;59343;51.102;5.884;2023-01-10T14:29:26;9.20;73.40
71523;HTU21D;59343;51.102;5.884;2023-01-10T14:31:55;9.14;73.93
71523;HTU21D;59343;51.102;5.884;2023-01-10T14:34:32;9.08;74.51
71523;HTU21D;59343;51.102;5.884;2023-01-10T14:37:13;9.02;74.80
71523;HTU21D;59343;51.102;5.884;2023-01-10T14:39:42;8.92;75.53
71523;HTU21D;59343;51.102;5.884;2023-01-10T14:42:15;8.80;76.12
71523;HTU21D;59343;51.102;5.884;2023-01-10T14:44:50;8.74;76.41
71523;HTU21D;59343;51.102;5.884;2023-01-10T14:47:29;8.66;76.73
71523;HTU21D;59343;51.102;5.884;2023-01-10T14:49:57;8.66;77.24
71523;HTU21D;59343;51.102;5.884;2023-01-10T14:52:25;8.63;77.50
71523;HTU21D;59343;51.102;5.884;2023-01-10T14:57:28;8.59;77.85
71523;HTU21D;59343;51.102;5.884;2023-01-10T15:00:15;8.56;77.82
71523;HTU21D;59343;51.102;5.884;2023-01-10T15:02:47;8.58;78.23
71523;HTU21D;59343;51.102;5.884;2023-01-10T15:05:20;8.56;78.08
71523;HTU21D;59343;51.102;5.884;2023-01-10T15:07:47;8.50;78.22
71523;HTU21D;59343;51.102;5.884;2023-01-10T15:10:32;8.45;78.47
71523;HTU21D;59343;51.102;5.884;2023-01-10T15:13:02;8.43;78.80
71523;HTU21D;59343;51.102;5.884;2023-01-10T15:15:36;8.44;79.09
71523;HTU21D;59343;51.102;5.884;2023-01-10T15:20:50;8.37;79.36
71523;HTU21D;59343;51.102;5.884;2023-01-10T15:23:17;8.35;79.53
71523;HTU21D;59343;51.102;5.884;2023-01-10T15:25:43;8.34;79.59
71523;HTU21D;59343;51.102;5.884;2023-01-10T15:28:17;8.29;80.13
71523;HTU21D;59343;51.102;5.884;2023-01-10T15:30:45;8.33;79.89
71523;HTU21D;59343;51.102;5.884;2023-01-10T15:33:23;8.30;80.11
71523;HTU21D;59343;51.102;5.884;2023-01-10T15:35:51;8.33;80.20
71523;HTU21D;59343;51.102;5.884;2023-01-10T15:38:22;8.32;80.14
71523;HTU21D;59343;51.102;5.884;2023-01-10T15:41:01;8.32;80.28
71523;HTU21D;59343;51.102;5.884;2023-01-10T15:43:29;8.29;80.38
71523;HTU21D;59343;51.102;5.884;2023-01-10T15:45:57;8.29;80.43
71523;HTU21D;59343;51.102;5.884;2023-01-10T15:48:37;8.30;80.51
71523;HTU21D;59343;51.102;5.884;2023-01-10T15:51:13;8.31;80.46
71523;HTU21D;59343;51.102;5.884;2023-01-10T15:53:50;8.33;80.38
71523;HTU21D;59343;51.102;5.884;2023-01-10T15:56:21;8.30;80.46
71523;HTU21D;59343;51.102;5.884;2023-01-10T15:58:50;8.29;80.45
71523;HTU21D;59343;51.102;5.884;2023-01-10T16:01:17;8.31;80.44
71523;HTU21D;59343;51.102;5.884;2023-01-10T16:03:58;8.22;81.10
71523;HTU21D;59343;51.102;5.884;2023-01-10T16:06:29;8.21;81.07
71523;HTU21D;59343;51.102;5.884;2023-01-10T16:09:06;8.21;80.94
71523;HTU21D;59343;51.102;5.884;2023-01-10T16:11:46;8.19;81.12
71523;HTU21D;59343;51.102;5.884;2023-01-10T16:14:31;8.16;81.20
71523;HTU21D;59343;51.102;5.884;2023-01-10T16:16:59;8.12;81.37
71523;HTU21D;59343;51.102;5.884;2023-01-10T16:19:25;8.08;81.75
71523;HTU21D;59343;51.102;5.884;2023-01-10T16:21:54;8.07;82.06
71523;HTU21D;59343;51.102;5.884;2023-01-10T16:24:32;8.04;82.07
71523;HTU21D;59343;51.102;5.884;2023-01-10T16:27:02;8.04;82.46
71523;HTU21D;59343;51.102;5.884;2023-01-10T16:29:31;8.04;82.51
71523;HTU21D;59343;51.102;5.884;2023-01-10T16:31:57;8.04;82.71
71523;HTU21D;59343;51.102;5.884;2023-01-10T16:34:23;8.09;82.87
71523;HTU21D;59343;51.102;5.884;2023-01-10T16:36:51;8.04;82.89
71523;HTU21D;59343;51.102;5.884;2023-01-10T16:39:19;8.04;82.98
71523;HTU21D;59343;51.102;5.884;2023-01-10T16:41:46;8.02;83.09
71523;HTU21D;59343;51.102;5.884;2023-01-10T16:44:32;8.01;83.32
71523;HTU21D;59343;51.102;5.884;2023-01-10T16:46:59;8.01;83.50
71523;HTU21D;59343;51.102;5.884;2023-01-10T16:49:25;7.99;83.74
71523;HTU21D;59343;51.102;5.884;2023-01-10T16:51:51;7.96;83.94
71523;HTU21D;59343;51.102;5.884;2023-01-10T16:54:21;7.94;84.34
71523;HTU21D;59343;51.102;5.884;2023-01-10T16:56:48;7.93;84.43
71523;HTU21D;59343;51.102;5.884;2023-01-10T16:59:15;7.93;84.62
71523;HTU21D;59343;51.102;5.884;2023-01-10T17:01:47;7.92;84.81
71523;HTU21D;59343;51.102;5.884;2023-01-10T17:04:22;7.91;85.09
71523;HTU21D;59343;51.102;5.884;2023-01-10T17:06:49;7.91;85.19
71523;HTU21D;59343;51.102;5.884;2023-01-10T17:09:22;7.96;85.29
71523;HTU21D;59343;51.102;5.884;2023-01-10T17:11:53;7.98;85.16
71523;HTU21D;59343;51.102;5.884;2023-01-10T17:14:21;8.02;85.16
71523;HTU21D;59343;51.102;5.884;2023-01-10T17:16:47;8.05;85.07
71523;HTU21D;59343;51.102;5.884;2023-01-10T17:19:13;8.11;84.72
71523;HTU21D;59343;51.102;5.884;2023-01-10T17:21:39;8.14;84.59
71523;HTU21D;59343;51.102;5.884;2023-01-10T17:24:05;8.18;84.25
71523;HTU21D;59343;51.102;5.884;2023-01-10T17:26:31;8.20;84.07
71523;HTU21D;59343;51.102;5.884;2023-01-10T17:28:57;8.28;83.76
71523;HTU21D;59343;51.102;5.884;2023-01-10T17:31:23;8.31;83.39
71523;HTU21D;59343;51.102;5.884;2023-01-10T17:33:49;8.32;83.27
71523;HTU21D;59343;51.102;5.884;2023-01-10T17:36:15;8.31;83.03
71523;HTU21D;59343;51.102;5.884;2023-01-10T17:38:41;8.37;82.88
71523;HTU21D;59343;51.102;5.884;2023-01-10T17:41:08;8.42;82.82
71523;HTU21D;59343;51.102;5.884;2023-01-10T17:43:36;8.47;82.62
71523;HTU21D;59343;51.102;5.884;2023-01-10T17:46:02;8.49;82.38
71523;HTU21D;59343;51.102;5.884;2023-01-10T17:48:30;8.52;82.21
71523;HTU21D;59343;51.102;5.884;2023-01-10T17:50:58;8.51;82.17
71523;HTU21D;59343;51.102;5.884;2023-01-10T17:53:25;8.51;82.19
71523;HTU21D;59343;51.102;5.884;2023-01-10T17:55:52;8.57;81.90
71523;HTU21D;59343;51.102;5.884;2023-01-10T17:58:19;8.57;81.97